createdAt,value
2019-01-04T00:04:49.097Z,16.30
2019-01-04T00:09:53.307Z,16.30
2019-01-04T00:14:57.310Z,16.30
2019-01-04T00:20:01.364Z,16.30
2019-01-04T00:25:05.292Z,16.70
2019-01-04T00:30:10.749Z,17.00
2019-01-04T00:35:14.474Z,17.20
2019-01-04T00:40:18.125Z,17.90
2019-01-04T00:45:21.807Z,18.00
2019-01-04T00:50:25.947Z,17.50
2019-01-04T00:56:19.329Z,17.20
2019-01-04T01:01:51.444Z,17.10
2019-01-04T01:07:35.521Z,16.90
2019-01-04T01:13:26.617Z,16.70
2019-01-04T01:19:13.243Z,16.70
2019-01-04T01:24:47.378Z,16.70
2019-01-04T01:30:09.992Z,16.60
2019-01-04T01:35:34.661Z,16.50
2019-01-04T01:41:25.389Z,16.40
2019-01-04T01:46:51.099Z,16.30
2019-01-04T01:52:07.519Z,16.30
2019-01-04T01:57:11.226Z,16.20
2019-01-04T02:02:14.941Z,16.20
2019-01-04T02:07:18.631Z,16.10
2019-01-04T02:12:22.331Z,16.10
2019-01-04T02:17:26.327Z,16.10
2019-01-04T02:22:29.949Z,16.00
2019-01-04T02:27:33.584Z,16.00
2019-01-04T02:32:37.263Z,15.90
2019-01-04T02:37:41.610Z,15.90
2019-01-04T02:42:45.401Z,15.90
2019-01-04T02:47:49.039Z,15.80
2019-01-04T02:52:52.664Z,15.90
2019-01-04T02:57:56.283Z,16.40
2019-01-04T03:03:00.012Z,17.30
2019-01-04T03:08:03.751Z,18.00
2019-01-04T03:13:07.467Z,18.10
2019-01-04T03:18:11.159Z,18.00
2019-01-04T03:23:14.856Z,17.80
2019-01-04T03:28:18.587Z,17.30
2019-01-04T03:33:22.301Z,16.90
2019-01-04T03:38:26.044Z,16.60
2019-01-04T03:43:29.743Z,16.50
2019-01-04T03:48:33.408Z,16.50
2019-01-04T03:53:37.143Z,16.40
2019-01-04T03:58:40.806Z,16.30
2019-01-04T04:03:44.556Z,16.20
2019-01-04T04:08:48.256Z,16.20
2019-01-04T04:13:51.990Z,16.20
2019-01-04T04:18:55.679Z,16.10
2019-01-04T04:23:59.328Z,16.00
2019-01-04T04:29:03.029Z,16.00
2019-01-04T04:34:06.641Z,15.90
2019-01-04T04:39:10.290Z,15.90
2019-01-04T04:44:13.905Z,15.80
2019-01-04T04:49:17.575Z,15.80
2019-01-04T04:54:21.315Z,15.80
2019-01-04T04:59:25.028Z,15.80
2019-01-04T05:04:28.718Z,15.70
2019-01-04T05:09:32.426Z,15.90
2019-01-04T05:14:36.105Z,16.90
2019-01-04T05:19:39.857Z,17.20
2019-01-04T05:24:43.610Z,17.30
2019-01-04T05:29:47.346Z,17.50
2019-01-04T05:34:50.959Z,17.90
2019-01-04T05:39:54.604Z,18.30
2019-01-04T05:44:58.366Z,18.70
2019-01-04T05:50:02.394Z,18.70
2019-01-04T05:55:06.417Z,18.60
2019-01-04T06:00:10.617Z,19.90
2019-01-04T06:05:14.272Z,20.00
2019-01-04T06:10:18.538Z,19.90
2019-01-04T06:15:22.237Z,19.00
2019-01-04T06:20:26.202Z,19.00
2019-01-04T06:25:29.908Z,19.00
2019-01-04T06:30:33.688Z,20.20
2019-01-04T06:35:37.873Z,20.30
2019-01-04T06:40:41.785Z,20.20
2019-01-04T06:45:45.565Z,19.80
2019-01-04T06:50:49.376Z,19.40
2019-01-04T06:56:03.312Z,18.80
2019-01-04T07:01:07.059Z,18.80
2019-01-04T07:06:10.890Z,19.30
2019-01-04T07:11:14.566Z,20.00
2019-01-04T07:16:18.316Z,20.40
2019-01-04T07:21:21.958Z,20.50
2019-01-04T07:26:25.630Z,20.50
2019-01-04T07:31:29.484Z,20.30
2019-01-04T07:36:33.644Z,20.10
2019-01-04T07:41:37.749Z,19.70
2019-01-04T07:46:41.578Z,19.40
2019-01-04T07:51:45.420Z,18.60
2019-01-04T07:56:49.160Z,18.80
2019-01-04T08:01:52.954Z,19.10
2019-01-04T08:06:56.715Z,20.10
2019-01-04T08:12:00.704Z,20.50
2019-01-04T08:17:04.442Z,20.50
2019-01-04T08:22:08.136Z,20.30
2019-01-04T08:27:12.058Z,20.20
2019-01-04T08:32:15.788Z,19.90
2019-01-04T08:37:19.728Z,18.90
2019-01-04T08:42:23.468Z,18.50
2019-01-04T08:47:27.096Z,18.50
2019-01-04T08:52:30.768Z,19.90
2019-01-04T08:57:34.470Z,19.50
2019-01-04T09:02:38.195Z,20.40
2019-01-04T09:07:42.073Z,20.60
2019-01-04T09:12:46.040Z,20.60
2019-01-04T09:17:49.783Z,19.90
2019-01-04T09:22:53.544Z,19.00
2019-01-04T09:27:57.348Z,18.90
2019-01-04T09:33:01.078Z,19.40
2019-01-04T09:38:04.829Z,19.10
2019-01-04T09:43:08.593Z,18.60
2019-01-04T09:48:12.308Z,19.40
2019-01-04T09:53:16.023Z,19.40
2019-01-04T09:58:19.795Z,20.00
2019-01-04T10:03:23.463Z,19.20
2019-01-04T10:08:27.257Z,19.00
2019-01-04T10:13:30.967Z,19.70
2019-01-04T10:18:34.735Z,19.80
2019-01-04T10:23:38.534Z,19.50
2019-01-04T10:28:42.182Z,19.50
2019-01-04T10:33:45.888Z,19.50
2019-01-04T10:38:49.553Z,19.80
2019-01-04T10:43:53.279Z,19.50
2019-01-04T10:48:56.925Z,19.20
2019-01-04T10:54:00.861Z,19.10
2019-01-04T10:59:07.190Z,18.90
2019-01-04T11:04:10.983Z,18.80
2019-01-04T11:09:14.649Z,18.70
2019-01-04T11:14:18.446Z,18.50
2019-01-04T11:19:22.176Z,18.40
2019-01-04T11:24:46.455Z,18.30
2019-01-04T11:30:20.075Z,18.60
2019-01-04T11:36:17.186Z,19.60
2019-01-04T11:41:47.304Z,20.10
2019-01-04T11:47:19.977Z,20.50
2019-01-04T11:52:33.503Z,20.30
2019-01-04T11:57:37.501Z,20.00
2019-01-04T12:02:41.125Z,20.00
2019-01-04T12:07:44.857Z,19.10
2019-01-04T12:12:48.647Z,18.80
2019-01-04T12:17:52.424Z,18.60
2019-01-04T12:22:56.097Z,18.60
2019-01-04T12:27:59.813Z,19.10
2019-01-04T12:33:03.463Z,19.20
2019-01-04T12:38:07.514Z,19.10
2019-01-04T12:43:11.260Z,19.10
2019-01-04T12:48:15.017Z,19.00
2019-01-04T12:53:18.803Z,18.90
2019-01-04T12:58:22.615Z,19.20
2019-01-04T13:03:26.518Z,19.10
2019-01-04T13:08:30.275Z,18.80
2019-01-04T13:13:34.144Z,18.50
2019-01-04T13:18:37.916Z,18.40
2019-01-04T13:23:42.815Z,18.60
2019-01-04T13:28:46.586Z,18.90
2019-01-04T13:33:50.378Z,19.00
2019-01-04T13:38:54.185Z,18.90
2019-01-04T13:43:57.962Z,18.90
2019-01-04T13:49:01.948Z,19.10
2019-01-04T13:54:05.702Z,19.10
2019-01-04T13:59:09.529Z,18.90
2019-01-04T14:04:13.348Z,18.70
2019-01-04T14:09:17.458Z,18.60
2019-01-04T14:14:22.343Z,18.40
2019-01-04T14:19:26.089Z,18.30
2019-01-04T14:24:29.759Z,18.80
2019-01-04T14:29:33.455Z,19.30
2019-01-04T14:34:37.187Z,19.30
2019-01-04T14:45:44.321Z,19.90
2019-01-04T14:50:48.105Z,20.10
2019-01-04T14:55:51.724Z,19.90
2019-01-04T15:00:55.432Z,19.70
2019-01-04T15:05:59.299Z,19.60
2019-01-04T15:11:30.478Z,18.90
2019-01-04T15:16:35.162Z,18.60
2019-01-04T15:21:38.838Z,19.30
2019-01-04T15:26:42.577Z,20.50
2019-01-04T15:31:46.382Z,19.70
2019-01-04T15:36:50.187Z,19.50
2019-01-04T15:41:53.962Z,19.20
2019-01-04T15:46:57.880Z,19.20
2019-01-04T15:52:01.791Z,19.00
2019-01-04T15:57:05.529Z,18.90
2019-01-04T16:02:09.384Z,18.80
2019-01-04T16:07:13.320Z,18.90
2019-01-04T16:12:17.264Z,18.70
2019-01-04T16:17:21.011Z,18.70
2019-01-04T16:22:24.716Z,19.80
2019-01-04T16:27:28.729Z,20.50
2019-01-04T16:32:32.661Z,20.70
2019-01-04T16:37:36.606Z,20.20
2019-01-04T16:42:40.333Z,19.60
2019-01-04T16:47:44.310Z,19.30
2019-01-04T16:52:48.148Z,19.20
2019-01-04T16:57:51.920Z,19.00
2019-01-04T17:02:55.651Z,19.10
2019-01-04T17:07:59.494Z,19.00
2019-01-04T17:13:03.640Z,18.80
2019-01-04T17:18:07.473Z,18.70
2019-01-04T17:23:13.007Z,19.40
2019-01-04T17:28:16.815Z,20.80
2019-01-04T17:33:20.632Z,20.10
2019-01-04T17:38:24.471Z,19.70
2019-01-04T17:43:28.190Z,19.60
2019-01-04T17:48:31.915Z,19.40
2019-01-04T17:53:35.741Z,20.20
2019-01-04T17:58:39.568Z,20.40
2019-01-04T18:03:43.709Z,20.20
2019-01-04T18:08:47.575Z,19.70
2019-01-04T18:13:51.882Z,19.30
2019-01-04T18:18:55.773Z,19.10
2019-01-04T18:23:59.616Z,18.80
2019-01-04T18:29:03.867Z,18.80
2019-01-04T18:34:07.686Z,18.60
2019-01-04T18:39:11.514Z,18.50
2019-01-04T18:44:15.883Z,18.50
2019-01-04T18:49:19.749Z,18.40
2019-01-04T18:54:23.549Z,18.30
2019-01-04T18:59:27.492Z,18.20
2019-01-04T19:04:37.026Z,18.10
2019-01-04T19:09:37.113Z,18.10
2019-01-04T19:14:41.003Z,18.10
2019-01-04T19:19:44.844Z,18.00
2019-01-04T19:24:49.226Z,19.30
2019-01-04T19:29:53.106Z,20.00
2019-01-04T19:34:57.061Z,19.90
2019-01-04T19:40:01.208Z,20.00
2019-01-04T19:45:06.014Z,19.90
2019-01-04T19:50:20.900Z,19.80
2019-01-04T19:55:24.737Z,19.10
2019-01-04T20:00:28.477Z,18.60
2019-01-04T20:06:21.433Z,18.50
2019-01-04T20:12:35.569Z,18.40
2019-01-04T20:18:00.675Z,18.30
2019-01-04T20:23:26.610Z,18.20
2019-01-04T20:28:55.741Z,18.10
2019-01-04T20:34:21.550Z,18.00
2019-01-04T20:40:02.948Z,18.00
2019-01-04T20:45:28.746Z,17.90
2019-01-04T20:50:51.569Z,17.90
2019-01-04T20:56:17.458Z,17.80
2019-01-04T21:01:43.262Z,17.80
2019-01-04T21:07:09.068Z,17.70
2019-01-04T21:12:43.834Z,17.70
2019-01-04T21:18:11.840Z,17.60
2019-01-04T21:23:43.974Z,17.60
2019-01-04T21:29:12.959Z,17.50
2019-01-04T21:34:48.132Z,17.50
2019-01-04T21:40:08.804Z,17.50
2019-01-04T21:45:40.878Z,17.40
2019-01-04T21:51:12.832Z,17.40
2019-01-04T21:56:38.740Z,17.30
2019-01-04T22:02:00.240Z,17.30
2019-01-04T22:07:23.092Z,17.30
2019-01-04T22:12:52.736Z,17.30
2019-01-04T22:18:21.690Z,17.20
2019-01-04T22:23:48.003Z,17.10
2019-01-04T22:29:14.008Z,17.10
2019-01-04T22:34:35.876Z,17.10
2019-01-04T22:39:57.692Z,17.00
2019-01-04T22:45:17.563Z,16.90
2019-01-04T22:50:43.405Z,16.90
2019-01-04T22:55:56.972Z,16.90
2019-01-04T23:01:22.342Z,16.80
2019-01-04T23:06:44.108Z,16.80
2019-01-04T23:12:19.337Z,16.80
2019-01-04T23:17:48.166Z,16.70
2019-01-04T23:22:54.057Z,16.60
2019-01-04T23:28:28.801Z,16.60
2019-01-04T23:33:45.260Z,16.60
2019-01-04T23:39:20.420Z,16.50
2019-01-04T23:44:48.518Z,16.50
2019-01-04T23:50:14.144Z,16.50
2019-01-04T23:55:50.311Z,17.30
